Time;durP1;ratioP1;P1;durP2;ratioP2;P2;SDS_P1;SDS_P2;PMS_P1;PMS_P2;Temp;Humidity;BMP_temperature;BMP_pressure;BME280_temperature;BME280_humidity;BME280_pressure;Samples;Min_cycle;Max_cycle;Signal;HPM_P1;HPM_P2
2022/06/22 00:01:57;;;;;;;13.17;8.37;;;25.40;69.80;;;;;;5050895;28;20210;-79
2022/06/22 00:04:45;;;;;;;13.33;8.37;;;25.40;69.90;;;;;;5075651;28;20228;-79
2022/06/22 00:07:35;;;;;;;13.60;7.90;;;25.30;70.10;;;;;;5066208;28;20205;-79
2022/06/22 00:10:32;;;;;;;11.43;7.27;;;25.30;70.20;;;;;;5050664;28;20213;-78
2022/06/22 00:13:01;;;;;;;10.53;8.07;;;25.20;70.50;;;;;;5071826;28;20251;-79
2022/06/22 00:15:38;;;;;;;14.17;7.53;;;25.20;70.70;;;;;;5074034;28;20186;-79
2022/06/22 00:18:21;;;;;;;15.17;7.80;;;25.10;71.00;;;;;;5080716;28;20200;-79
2022/06/22 00:20:50;;;;;;;8.33;7.33;;;25.10;71.30;;;;;;5052246;28;20207;-79
2022/06/22 00:23:37;;;;;;;14.00;8.37;;;25.00;71.20;;;;;;5050222;28;20258;-79
2022/06/22 00:26:31;;;;;;;17.07;7.93;;;25.00;71.20;;;;;;5075570;28;20218;-79
2022/06/22 00:29:05;;;;;;;11.00;8.10;;;25.00;70.90;;;;;;5050412;28;20207;-79
2022/06/22 00:31:40;;;;;;;10.50;8.00;;;24.90;71.10;;;;;;5075315;28;20602;-78
2022/06/22 00:34:10;;;;;;;10.13;8.03;;;24.80;71.50;;;;;;5062462;28;20206;-79
2022/06/22 00:36:55;;;;;;;10.40;7.50;;;24.80;71.90;;;;;;5064869;28;20203;-78
2022/06/22 00:39:28;;;;;;;9.67;7.60;;;24.70;72.30;;;;;;5076164;28;20293;-79
2022/06/22 00:42:14;;;;;;;13.10;7.73;;;24.60;72.40;;;;;;5049490;28;20195;-79
2022/06/22 00:45:04;;;;;;;12.17;7.73;;;24.60;72.50;;;;;;5055981;28;20234;-79
2022/06/22 00:47:35;;;;;;;9.67;7.13;;;24.60;72.30;;;;;;5078003;28;20252;-78
2022/06/22 00:50:27;;;;;;;8.70;7.60;;;24.60;72.30;;;;;;5083009;28;20237;-78
2022/06/22 00:53:00;;;;;;;13.57;7.40;;;24.60;72.60;;;;;;5071190;28;20521;-79
2022/06/22 00:55:43;;;;;;;10.70;7.43;;;24.60;72.50;;;;;;5082898;28;20210;-79
2022/06/22 00:58:42;;;;;;;7.77;6.90;;;24.60;72.60;;;;;;5047556;28;20213;-79
2022/06/22 01:01:27;;;;;;;10.83;7.07;;;24.60;72.70;;;;;;5078534;28;20212;-79
2022/06/22 01:03:58;;;;;;;11.63;7.70;;;24.60;73.00;;;;;;5062994;28;20202;-79
2022/06/22 01:06:36;;;;;;;6.93;6.33;;;24.60;73.10;;;;;;5081076;28;20653;-80
2022/06/22 01:09:12;;;;;;;8.17;6.77;;;24.50;73.20;;;;;;5066306;28;20603;-79
2022/06/22 01:14:55;;;;;;;12.53;8.10;;;24.50;73.20;;;;;;5065544;28;20207;-80
2022/06/22 01:17:29;;;;;;;9.67;7.17;;;24.50;73.30;;;;;;5072587;28;20285;-79
2022/06/22 01:20:02;;;;;;;11.87;7.70;;;24.50;73.30;;;;;;5055215;28;20191;-79
2022/06/22 01:22:51;;;;;;;14.43;8.77;;;24.40;73.50;;;;;;5046072;28;20637;-79
2022/06/22 01:25:37;;;;;;;13.17;7.70;;;24.40;73.50;;;;;;5079133;28;20692;-79
2022/06/22 01:28:05;;;;;;;9.27;7.60;;;24.30;73.40;;;;;;5064170;28;20450;-79
2022/06/22 01:30:39;;;;;;;8.10;7.30;;;24.30;73.60;;;;;;5077137;28;20212;-79
2022/06/22 01:33:08;;;;;;;9.00;7.47;;;24.30;73.80;;;;;;5059013;28;20224;-79
2022/06/22 01:35:38;;;;;;;11.93;7.70;;;24.20;73.50;;;;;;5066167;28;20240;-79
2022/06/22 01:38:22;;;;;;;9.37;7.27;;;24.20;73.80;;;;;;5076950;28;20206;-79
2022/06/22 01:41:05;;;;;;;10.73;7.97;;;24.10;74.00;;;;;;5072427;28;20212;-79
2022/06/22 01:43:58;;;;;;;7.30;6.60;;;24.10;74.30;;;;;;5056662;28;20214;-80
2022/06/22 01:46:52;;;;;;;8.93;7.13;;;24.10;73.90;;;;;;5073420;28;20221;-79
2022/06/22 01:49:25;;;;;;;8.97;7.83;;;24.10;73.70;;;;;;5075304;28;20740;-79
2022/06/22 01:51:58;;;;;;;14.40;8.50;;;24.00;74.10;;;;;;5067426;28;20191;-79
2022/06/22 01:54:31;;;;;;;8.70;8.00;;;24.00;74.40;;;;;;5082912;28;20240;-79
2022/06/22 01:57:14;;;;;;;10.67;8.50;;;23.90;74.70;;;;;;5068799;28;20546;-79
2022/06/22 01:59:53;;;;;;;9.10;7.73;;;23.90;74.90;;;;;;5081248;28;20216;-79
2022/06/22 02:02:39;;;;;;;7.83;7.13;;;23.90;74.90;;;;;;5063169;28;20194;-79
2022/06/22 02:05:29;;;;;;;9.23;6.73;;;23.80;74.80;;;;;;5050216;28;20205;-79
2022/06/22 02:08:00;;;;;;;10.20;7.37;;;23.80;75.00;;;;;;5085146;28;20202;-79
2022/06/22 02:10:30;;;;;;;9.27;8.20;;;23.70;75.20;;;;;;5080343;28;20667;-79
2022/06/22 02:13:06;;;;;;;9.13;7.97;;;23.70;75.40;;;;;;5070654;28;20193;-79
2022/06/22 02:15:39;;;;;;;8.60;7.80;;;23.80;75.60;;;;;;5081394;28;20265;-79
2022/06/22 02:18:28;;;;;;;10.97;8.33;;;23.70;75.60;;;;;;5066561;28;20638;-80
2022/06/22 02:20:57;;;;;;;10.03;8.33;;;23.70;75.30;;;;;;5084333;28;20284;-79
2022/06/22 02:23:35;;;;;;;12.97;8.90;;;23.70;75.30;;;;;;5050892;28;20214;-80
2022/06/22 02:26:28;;;;;;;10.50;8.37;;;23.70;75.50;;;;;;5067839;28;20223;-79
2022/06/22 02:28:56;;;;;;;9.77;8.77;;;23.70;75.90;;;;;;5076130;28;20233;-79
2022/06/22 02:31:23;;;;;;;9.67;8.60;;;23.70;76.30;;;;;;5075956;28;20207;-79
2022/06/22 02:33:53;;;;;;;12.80;7.93;;;23.70;76.40;;;;;;5062918;28;20202;-79
2022/06/22 02:36:24;;;;;;;11.43;9.00;;;23.70;76.40;;;;;;5085054;28;20200;-79
2022/06/22 02:38:55;;;;;;;9.97;8.63;;;23.70;76.30;;;;;;5066818;28;20207;-79
2022/06/22 02:44:32;;;;;;;9.60;8.80;;;23.70;76.10;;;;;;5085878;28;20267;-79
2022/06/22 02:47:20;;;;;;;12.80;9.13;;;23.70;76.20;;;;;;5067914;28;20740;-79
2022/06/22 02:49:58;;;;;;;11.77;9.13;;;23.70;76.60;;;;;;5064193;28;20217;-79
2022/06/22 02:52:37;;;;;;;13.30;9.10;;;23.70;76.70;;;;;;5043112;28;20352;-79
2022/06/22 02:55:09;;;;;;;11.87;9.40;;;23.70;76.80;;;;;;5080901;28;20194;-78
2022/06/22 02:57:47;;;;;;;10.50;9.07;;;23.60;76.70;;;;;;5061399;28;20214;-79
2022/06/22 03:00:17;;;;;;;11.50;9.13;;;23.60;76.90;;;;;;5075788;28;20206;-79
2022/06/22 03:02:46;;;;;;;19.47;9.90;;;23.60;77.10;;;;;;5060448;28;20298;-79
2022/06/22 03:05:14;;;;;;;12.37;9.43;;;23.60;77.40;;;;;;5074999;28;20557;-79
2022/06/22 03:07:46;;;;;;;12.23;9.67;;;23.60;77.60;;;;;;5081733;28;20206;-79
2022/06/22 03:10:28;;;;;;;13.30;8.93;;;23.60;77.80;;;;;;5077148;28;20206;-78
2022/06/22 03:12:57;;;;;;;10.33;8.87;;;23.60;78.00;;;;;;5052468;28;20263;-79
2022/06/22 03:15:29;;;;;;;14.10;8.63;;;23.50;78.10;;;;;;5067946;28;20205;-79
2022/06/22 03:17:59;;;;;;;17.33;9.10;;;23.60;78.20;;;;;;5045287;28;20216;-79
2022/06/22 03:20:31;;;;;;;11.47;9.27;;;23.60;77.90;;;;;;5080439;28;20225;-79
2022/06/22 03:23:17;;;;;;;14.97;8.50;;;23.60;77.50;;;;;;5085240;28;20259;-79
2022/06/22 03:25:50;;;;;;;11.33;8.57;;;23.60;77.30;;;;;;5083438;28;20320;-78
2022/06/22 03:28:27;;;;;;;12.97;9.33;;;23.60;77.50;;;;;;5066052;28;20209;-80
2022/06/22 03:30:59;;;;;;;10.87;9.17;;;23.60;77.70;;;;;;5074579;28;20200;-79
2022/06/22 03:33:31;;;;;;;11.03;9.67;;;23.60;77.30;;;;;;5049127;28;20226;-79
2022/06/22 03:36:16;;;;;;;9.90;8.17;;;23.60;77.60;;;;;;5079738;28;20217;-79
2022/06/22 03:38:55;;;;;;;9.50;8.53;;;23.60;77.90;;;;;;5068232;28;20189;-79
2022/06/22 03:41:29;;;;;;;10.80;8.87;;;23.60;78.30;;;;;;5061910;28;20208;-79
2022/06/22 03:44:22;;;;;;;12.73;9.50;;;23.60;78.40;;;;;;5051711;28;20658;-80
2022/06/22 03:47:03;;;;;;;10.10;8.50;;;23.60;78.50;;;;;;5075595;28;20240;-79
2022/06/22 03:49:40;;;;;;;10.13;9.10;;;23.60;78.70;;;;;;5073419;28;20201;-79
2022/06/22 03:52:14;;;;;;;12.20;8.87;;;23.60;78.80;;;;;;5074751;28;20212;-79
2022/06/22 03:54:52;;;;;;;10.93;8.90;;;23.60;78.90;;;;;;5049982;28;20554;-80
2022/06/22 03:57:23;;;;;;;10.33;9.20;;;23.60;79.00;;;;;;5078634;28;20201;-79
2022/06/22 03:59:52;;;;;;;10.43;9.00;;;23.60;79.00;;;;;;5055120;28;20510;-79
2022/06/22 04:02:19;;;;;;;11.43;8.97;;;23.70;79.00;;;;;;5061666;28;20267;-79
2022/06/22 04:04:52;;;;;;;10.17;8.20;;;23.60;78.90;;;;;;5038582;28;20222;-80
2022/06/22 04:07:20;;;;;;;11.00;8.13;;;23.70;78.90;;;;;;5063534;28;20575;-79
2022/06/22 04:09:55;;;;;;;10.03;9.00;;;23.70;78.80;;;;;;5054302;28;20205;-79
2022/06/22 04:12:28;;;;;;;11.33;10.13;;;23.70;78.70;;;;;;5083174;28;20201;-79
2022/06/22 04:15:15;;;;;;;12.03;9.77;;;23.80;78.70;;;;;;5065323;28;20233;-79
2022/06/22 04:17:53;;;;;;;12.10;9.53;;;23.90;78.80;;;;;;5065907;28;20201;-79
2022/06/22 04:20:52;;;;;;;16.33;9.83;;;23.90;78.80;;;;;;5055195;28;20209;-79
2022/06/22 04:23:27;;;;;;;15.90;8.97;;;23.90;78.90;;;;;;5075744;28;20317;-79
2022/06/22 04:26:03;;;;;;;15.67;9.90;;;23.90;78.90;;;;;;5060193;28;20223;-79
2022/06/22 04:28:34;;;;;;;17.10;10.47;;;23.90;78.90;;;;;;5079393;28;20194;-79
2022/06/22 04:31:05;;;;;;;13.33;10.27;;;24.00;79.00;;;;;;5074216;28;20653;-79
2022/06/22 04:33:33;;;;;;;11.20;10.10;;;24.00;79.10;;;;;;5064412;28;20210;-79
2022/06/22 04:36:06;;;;;;;12.10;9.87;;;24.00;79.10;;;;;;5074719;28;20226;-79
2022/06/22 04:39:00;;;;;;;12.63;9.63;;;24.00;79.10;;;;;;5068664;28;20210;-79
2022/06/22 04:41:32;;;;;;;10.57;8.90;;;24.10;79.10;;;;;;5062071;28;20672;-79
2022/06/22 04:44:08;;;;;;;10.10;9.10;;;24.10;79.00;;;;;;5074420;28;20258;-79
2022/06/22 04:46:40;;;;;;;10.20;9.07;;;24.10;78.90;;;;;;5045988;28;20657;-79
2022/06/22 04:49:36;;;;;;;12.93;9.63;;;24.30;79.10;;;;;;5044895;28;20665;-80
2022/06/22 04:52:23;;;;;;;12.63;9.47;;;24.30;79.30;;;;;;5050096;28;20214;-78
2022/06/22 04:54:56;;;;;;;11.27;8.97;;;24.40;79.30;;;;;;5048773;28;20198;-79
2022/06/22 04:57:31;;;;;;;10.27;8.90;;;24.50;79.20;;;;;;5056014;28;20203;-80
2022/06/22 05:00:03;;;;;;;14.80;9.57;;;24.70;79.30;;;;;;5064681;28;20198;-79
2022/06/22 05:02:39;;;;;;;10.43;9.37;;;24.80;79.20;;;;;;5057445;28;20219;-79
2022/06/22 05:05:28;;;;;;;11.93;8.87;;;25.00;79.30;;;;;;5078674;28;20199;-79
2022/06/22 05:08:15;;;;;;;16.03;10.37;;;25.20;79.10;;;;;;5075736;28;20224;-79
2022/06/22 05:11:01;;;;;;;14.47;9.27;;;25.40;78.60;;;;;;5064363;28;20197;-80
2022/06/22 05:13:34;;;;;;;12.10;8.93;;;25.70;77.90;;;;;;5064555;28;20225;-79
2022/06/22 05:16:04;;;;;;;12.70;9.87;;;25.90;77.30;;;;;;5078119;28;20557;-79
2022/06/22 05:18:34;;;;;;;13.60;10.50;;;26.00;76.70;;;;;;5030813;28;20206;-80
2022/06/22 05:21:14;;;;;;;12.97;9.87;;;26.20;76.60;;;;;;5071280;28;20647;-79
2022/06/22 05:23:44;;;;;;;11.63;10.43;;;26.30;76.60;;;;;;5069304;28;20272;-80
2022/06/22 05:26:18;;;;;;;11.90;9.47;;;26.30;76.40;;;;;;5074980;28;20240;-79
2022/06/22 05:28:51;;;;;;;11.43;10.17;;;26.30;76.10;;;;;;5063687;28;20204;-79
2022/06/22 05:31:24;;;;;;;15.43;10.80;;;26.40;76.20;;;;;;5062462;28;20221;-79
2022/06/22 05:34:00;;;;;;;12.57;11.40;;;26.40;76.40;;;;;;5076600;28;20194;-79
2022/06/22 05:36:31;;;;;;;13.43;10.90;;;26.40;76.50;;;;;;5065355;28;20204;-79
2022/06/22 05:39:00;;;;;;;15.43;10.43;;;26.40;76.60;;;;;;5084004;28;20217;-80
2022/06/22 05:41:30;;;;;;;13.97;10.37;;;26.40;76.80;;;;;;5073448;28;20265;-80
2022/06/22 05:44:07;;;;;;;11.50;10.27;;;26.40;76.80;;;;;;5060003;28;20229;-79
2022/06/22 05:46:35;;;;;;;11.97;10.93;;;26.50;77.00;;;;;;5058599;28;20235;-79
2022/06/22 05:49:04;;;;;;;13.30;10.87;;;26.50;77.20;;;;;;5046628;28;20229;-80
2022/06/22 05:51:34;;;;;;;13.47;11.63;;;26.60;77.40;;;;;;5079223;28;20204;-79
2022/06/22 05:54:09;;;;;;;16.37;12.23;;;26.60;77.50;;;;;;5078615;28;20204;-80
2022/06/22 05:56:48;;;;;;;13.27;11.33;;;26.70;77.50;;;;;;5076698;28;20607;-80
2022/06/22 05:59:22;;;;;;;12.90;11.60;;;26.90;77.60;;;;;;5073548;28;20235;-80
2022/06/22 06:02:04;;;;;;;14.00;12.27;;;27.00;77.70;;;;;;5073312;28;20236;-80
2022/06/22 06:04:52;;;;;;;12.40;11.17;;;27.20;77.10;;;;;;5054578;28;20205;-80
2022/06/22 06:07:37;;;;;;;12.60;11.27;;;27.30;76.60;;;;;;5081627;28;20218;-80
2022/06/22 06:10:20;;;;;;;12.63;10.77;;;27.50;76.10;;;;;;5051689;28;20215;-80
2022/06/22 06:13:10;;;;;;;15.40;10.30;;;27.70;75.60;;;;;;5071430;28;20207;-81
2022/06/22 06:15:39;;;;;;;12.90;10.40;;;27.90;75.10;;;;;;5070124;28;20668;-80
2022/06/22 06:18:13;;;;;;;15.73;11.00;;;28.10;74.60;;;;;;5063071;28;20680;-80
2022/06/22 06:20:47;;;;;;;12.70;11.40;;;28.20;73.90;;;;;;5079317;28;20252;-80
2022/06/22 06:23:17;;;;;;;14.53;9.87;;;28.30;73.40;;;;;;5062330;28;20216;-80
2022/06/22 06:28:53;;;;;;;13.20;9.17;;;28.30;73.10;;;;;;5057200;28;20203;-80
2022/06/22 06:31:28;;;;;;;14.00;10.53;;;28.30;73.10;;;;;;5056457;28;20209;-81
2022/06/22 06:33:58;;;;;;;12.60;8.93;;;28.30;72.90;;;;;;5066349;28;20214;-80
2022/06/22 06:36:41;;;;;;;13.37;8.77;;;28.40;72.70;;;;;;5081511;28;20198;-81
2022/06/22 06:39:19;;;;;;;14.23;9.40;;;28.40;73.00;;;;;;5079585;28;20216;-81
2022/06/22 06:42:05;;;;;;;14.73;8.77;;;28.50;72.60;;;;;;5076435;28;20212;-80
2022/06/22 06:44:38;;;;;;;11.30;9.93;;;28.50;72.10;;;;;;5066038;28;20327;-81
2022/06/22 06:47:46;;;;;;;18.10;8.73;;;28.60;71.60;;;;;;5063582;28;20248;-79
2022/06/22 06:50:23;;;;;;;10.60;8.60;;;28.60;71.80;;;;;;5077563;28;20193;-79
2022/06/22 06:53:05;;;;;;;9.07;8.23;;;28.80;71.90;;;;;;5060013;28;20208;-79
2022/06/22 06:55:52;;;;;;;8.93;8.03;;;28.90;71.40;;;;;;5073758;28;20684;-79
2022/06/22 06:58:26;;;;;;;12.07;8.47;;;29.00;71.20;;;;;;5073458;28;20213;-79
2022/06/22 07:00:53;;;;;;;14.07;8.33;;;29.10;70.10;;;;;;5060339;28;20641;-79
2022/06/22 07:03:40;;;;;;;13.13;8.10;;;29.10;69.60;;;;;;5059971;28;20334;-79
2022/06/22 07:06:09;;;;;;;14.30;8.67;;;29.10;69.80;;;;;;5042601;28;20206;-79
2022/06/22 07:08:51;;;;;;;9.07;8.07;;;29.00;70.30;;;;;;5043550;28;20217;-79
2022/06/22 07:11:31;;;;;;;11.57;8.90;;;28.90;70.70;;;;;;5042049;28;20539;-78
2022/06/22 07:14:20;;;;;;;11.13;8.43;;;28.90;71.20;;;;;;5056014;28;20517;-78
2022/06/22 07:16:50;;;;;;;14.90;7.67;;;28.80;71.50;;;;;;5043643;28;20316;-78
2022/06/22 07:19:22;;;;;;;8.20;7.50;;;28.70;71.50;;;;;;5077514;28;20202;-79
2022/06/22 07:22:05;;;;;;;11.10;7.73;;;28.60;71.20;;;;;;5047879;28;20198;-78
2022/06/22 07:24:43;;;;;;;12.27;7.13;;;28.50;71.00;;;;;;5059282;28;20543;-79
2022/06/22 07:27:29;;;;;;;9.83;7.20;;;28.50;71.30;;;;;;5054527;28;20629;-78
2022/06/22 07:30:21;;;;;;;11.03;7.27;;;28.30;71.50;;;;;;5049823;28;20289;-79
2022/06/22 07:32:57;;;;;;;9.07;7.20;;;28.30;71.90;;;;;;5075863;28;20202;-78
2022/06/22 07:35:36;;;;;;;7.53;6.73;;;28.20;72.40;;;;;;5057836;28;20202;-78
2022/06/22 07:38:25;;;;;;;11.70;7.07;;;28.20;72.50;;;;;;5060924;28;20214;-78
2022/06/22 07:43:41;;;;;;;8.37;6.83;;;28.20;73.40;;;;;;5074322;28;20194;-79
2022/06/22 07:46:17;;;;;;;12.70;7.57;;;28.20;72.60;;;;;;5066007;28;20233;-78
2022/06/22 07:48:48;;;;;;;12.37;7.20;;;28.10;72.40;;;;;;5073024;28;20293;-80
2022/06/22 07:51:22;;;;;;;9.00;6.30;;;28.10;72.10;;;;;;5039565;28;20199;-79
2022/06/22 07:53:49;;;;;;;7.50;5.97;;;28.10;72.30;;;;;;5028079;28;20209;-79
2022/06/22 07:56:46;;;;;;;15.10;6.77;;;28.10;72.60;;;;;;5062048;28;20202;-80
2022/06/22 07:59:27;;;;;;;7.27;6.40;;;28.10;72.80;;;;;;5034146;28;20214;-79
2022/06/22 08:01:59;;;;;;;10.23;7.17;;;28.20;73.00;;;;;;5058296;28;20204;-79
2022/06/22 08:04:41;;;;;;;8.67;6.27;;;28.20;73.60;;;;;;5051479;28;20637;-79
2022/06/22 08:07:14;;;;;;;8.63;6.70;;;28.20;74.00;;;;;;5049329;28;20214;-79
2022/06/22 08:09:55;;;;;;;13.77;6.20;;;28.20;74.20;;;;;;5041894;28;20221;-79
2022/06/22 08:12:29;;;;;;;10.63;7.03;;;28.30;74.40;;;;;;5075148;28;20280;-79
2022/06/22 08:14:58;;;;;;;13.23;7.20;;;28.30;74.30;;;;;;5053781;28;20208;-79
2022/06/22 08:17:37;;;;;;;11.90;7.13;;;28.30;74.10;;;;;;5058151;28;20240;-79
2022/06/22 08:20:11;;;;;;;11.30;7.57;;;28.30;73.60;;;;;;5075329;28;20207;-79
2022/06/22 08:22:38;;;;;;;18.43;7.60;;;28.40;73.30;;;;;;5055907;28;20671;-79
2022/06/22 08:25:07;;;;;;;14.30;7.57;;;28.40;73.10;;;;;;5040668;28;20214;-79
2022/06/22 08:27:35;;;;;;;11.17;8.33;;;28.40;73.50;;;;;;5058737;28;20296;-79
2022/06/22 08:30:03;;;;;;;14.63;7.97;;;28.60;73.50;;;;;;5064105;28;20198;-80
2022/06/22 08:32:33;;;;;;;8.20;7.30;;;28.70;73.10;;;;;;5074411;28;20194;-79
2022/06/22 08:35:18;;;;;;;10.50;7.57;;;28.80;72.70;;;;;;5057293;28;20277;-79
2022/06/22 08:37:52;;;;;;;8.93;6.97;;;29.00;72.60;;;;;;5055330;28;20198;-79
2022/06/22 08:40:44;;;;;;;10.20;6.90;;;29.10;72.50;;;;;;5058339;28;20512;-79
2022/06/22 08:43:33;;;;;;;8.90;6.70;;;29.30;72.30;;;;;;5057132;28;20871;-79
2022/06/22 08:46:44;;;;;;;8.60;7.00;;;29.50;71.20;;;;;;5049136;28;20216;-79
2022/06/22 08:49:48;;;;;;;17.30;7.70;;;29.70;69.60;;;;;;5070141;28;20237;-79
2022/06/22 08:53:03;;;;;;;18.57;8.33;;;29.80;68.40;;;;;;5052912;28;20220;-79
2022/06/22 08:55:47;;;;;;;8.73;7.50;;;30.00;68.60;;;;;;5052151;28;20654;-79
2022/06/22 08:58:37;;;;;;;20.30;7.70;;;30.20;67.90;;;;;;5063497;28;20727;-79
2022/06/22 09:01:23;;;;;;;13.80;7.50;;;30.40;67.30;;;;;;5064010;28;20194;-79
2022/06/22 09:04:14;;;;;;;8.47;6.20;;;30.50;66.50;;;;;;5040859;28;20209;-79
2022/06/22 09:06:41;;;;;;;11.27;6.53;;;30.50;65.10;;;;;;5064610;28;20228;-78
2022/06/22 09:09:31;;;;;;;13.50;6.43;;;30.30;65.00;;;;;;5070136;28;20214;-79
2022/06/22 09:12:08;;;;;;;6.80;6.03;;;30.20;65.70;;;;;;5057437;28;20197;-79
2022/06/22 09:14:50;;;;;;;12.90;6.00;;;30.00;65.30;;;;;;5056919;28;20201;-79
2022/06/22 09:17:28;;;;;;;14.00;6.87;;;29.90;66.00;;;;;;5057390;28;20218;-79
2022/06/22 09:20:23;;;;;;;10.43;6.63;;;29.80;66.60;;;;;;5063490;28;20200;-79
2022/06/22 09:23:00;;;;;;;14.87;6.53;;;29.80;67.20;;;;;;5052655;28;20225;-79
2022/06/22 09:25:36;;;;;;;7.57;5.53;;;29.90;67.10;;;;;;5052649;28;20534;-79
2022/06/22 09:28:11;;;;;;;8.00;5.53;;;30.00;66.90;;;;;;5061235;28;20214;-79
2022/06/22 09:30:59;;;;;;;8.90;5.70;;;30.20;66.70;;;;;;5047478;28;20259;-79
2022/06/22 09:33:45;;;;;;;9.97;5.37;;;30.40;66.10;;;;;;5040444;28;20594;-80
2022/06/22 09:36:37;;;;;;;6.57;5.77;;;30.70;65.80;;;;;;5055860;28;20198;-79
2022/06/22 09:39:19;;;;;;;11.30;6.37;;;30.90;64.80;;;;;;5073662;28;20201;-79
2022/06/22 09:41:46;;;;;;;8.03;5.90;;;31.00;63.90;;;;;;5056671;28;20206;-79
2022/06/22 09:44:19;;;;;;;10.77;6.10;;;31.10;64.10;;;;;;5053888;28;20245;-79
2022/06/22 09:46:49;;;;;;;10.57;6.63;;;31.20;64.00;;;;;;5053330;28;20194;-79
2022/06/22 09:49:22;;;;;;;9.87;5.97;;;31.20;62.80;;;;;;5052927;28;20231;-79
2022/06/22 09:51:58;;;;;;;9.60;6.27;;;31.30;62.90;;;;;;5062269;28;20202;-79
2022/06/22 09:57:54;;;;;;;13.33;7.07;;;31.20;62.40;;;;;;5057090;28;20205;-79
2022/06/22 10:00:45;;;;;;;12.83;5.97;;;31.10;62.00;;;;;;5062843;28;20201;-79
2022/06/22 10:03:57;;;;;;;9.10;5.93;;;30.90;62.80;;;;;;5058742;28;20264;-79
2022/06/22 10:06:38;;;;;;;10.00;6.30;;;30.80;63.10;;;;;;5060507;28;20205;-79
2022/06/22 10:09:28;;;;;;;9.77;6.30;;;30.70;63.70;;;;;;5074006;28;20298;-79
2022/06/22 10:12:31;;;;;;;8.40;5.83;;;30.70;64.30;;;;;;5039355;28;20205;-79
2022/06/22 10:15:04;;;;;;;9.13;6.53;;;30.70;64.70;;;;;;5070182;28;20205;-79
2022/06/22 10:17:57;;;;;;;9.00;6.77;;;30.70;65.00;;;;;;5060813;28;20274;-78
2022/06/22 10:20:48;;;;;;;11.27;5.37;;;30.70;65.10;;;;;;5063013;28;20216;-79
2022/06/22 10:23:40;;;;;;;16.10;7.03;;;30.80;65.30;;;;;;5056967;28;20202;-79
2022/06/22 10:26:10;;;;;;;8.93;6.77;;;30.90;65.10;;;;;;5041648;28;20618;-79
2022/06/22 10:28:53;;;;;;;12.03;6.90;;;31.00;64.40;;;;;;5074423;28;20221;-78
2022/06/22 10:31:32;;;;;;;8.47;6.60;;;31.10;63.90;;;;;;5070435;28;20202;-79
2022/06/22 10:34:18;;;;;;;10.00;6.27;;;31.20;63.50;;;;;;5073538;28;20200;-79
2022/06/22 10:37:23;;;;;;;11.17;7.63;;;31.40;62.60;;;;;;5077532;28;20190;-79
2022/06/22 10:39:56;;;;;;;15.17;7.00;;;31.60;62.40;;;;;;5075034;28;20548;-79
2022/06/22 10:45:51;;;;;;;11.07;6.50;;;31.90;62.70;;;;;;5073555;28;20226;-79
2022/06/22 10:48:36;;;;;;;13.13;7.13;;;32.00;60.50;;;;;;5077838;28;20224;-79
2022/06/22 10:51:23;;;;;;;11.73;7.50;;;32.10;60.90;;;;;;5060743;28;20266;-78
2022/06/22 10:54:12;;;;;;;8.77;6.40;;;32.10;61.30;;;;;;5058815;28;20202;-78
2022/06/22 10:56:58;;;;;;;10.63;6.73;;;32.10;61.30;;;;;;5058395;28;20229;-79
2022/06/22 11:00:14;;;;;;;12.20;7.13;;;32.20;61.10;;;;;;5064536;28;20218;-78
2022/06/22 11:02:59;;;;;;;10.53;6.27;;;32.20;60.80;;;;;;5019518;28;20205;-78
2022/06/22 11:06:01;;;;;;;9.10;6.67;;;32.20;60.60;;;;;;5066449;28;20225;-79
2022/06/22 11:08:31;;;;;;;11.40;6.70;;;32.30;60.90;;;;;;5057008;28;20691;-79
2022/06/22 11:11:16;;;;;;;12.80;7.20;;;32.30;61.40;;;;;;5034479;28;20197;-78
2022/06/22 11:13:52;;;;;;;13.03;7.43;;;32.40;60.20;;;;;;5055804;28;20206;-79
2022/06/22 11:16:34;;;;;;;15.90;7.40;;;32.40;60.00;;;;;;5053978;28;20202;-79
2022/06/22 11:19:20;;;;;;;10.83;6.87;;;32.40;59.60;;;;;;5047593;28;20649;-79
2022/06/22 11:22:14;;;;;;;9.77;6.67;;;32.50;59.50;;;;;;5055942;28;20545;-79
2022/06/22 11:25:17;;;;;;;11.03;6.27;;;32.60;60.00;;;;;;5076597;28;20218;-79
2022/06/22 11:31:01;;;;;;;6.33;5.40;;;32.80;59.00;;;;;;5061795;28;20229;-79
2022/06/22 11:33:56;;;;;;;10.27;6.07;;;33.00;59.00;;;;;;5077048;28;20197;-79
2022/06/22 11:36:46;;;;;;;7.70;6.90;;;33.20;58.20;;;;;;5059146;28;20243;-79
2022/06/22 11:39:42;;;;;;;11.27;6.60;;;33.30;57.90;;;;;;5035319;28;20203;-79
2022/06/22 11:42:36;;;;;;;14.10;6.13;;;33.40;57.40;;;;;;5053600;28;20634;-79
2022/06/22 11:45:51;;;;;;;13.73;6.70;;;33.40;57.40;;;;;;5065825;28;20249;-79
2022/06/22 11:48:57;;;;;;;14.33;6.50;;;33.20;57.10;;;;;;5069397;28;20275;-79
2022/06/22 11:51:53;;;;;;;12.37;6.37;;;33.10;57.00;;;;;;5053334;28;20213;-79
2022/06/22 11:54:58;;;;;;;6.93;6.10;;;33.00;57.20;;;;;;5061748;28;20202;-78
2022/06/22 11:57:47;;;;;;;8.07;5.63;;;33.00;56.70;;;;;;5040004;28;20198;-79
2022/06/22 12:00:46;;;;;;;9.10;5.50;;;33.00;56.70;;;;;;5059185;28;20190;-78
2022/06/22 12:03:43;;;;;;;10.07;6.10;;;32.80;57.10;;;;;;5074866;28;20285;-78
2022/06/22 12:06:57;;;;;;;12.53;6.17;;;32.80;57.60;;;;;;5072426;28;20285;-79
2022/06/22 12:10:01;;;;;;;10.60;5.47;;;32.80;57.80;;;;;;5015077;28;20270;-79
2022/06/22 12:12:58;;;;;;;9.83;5.60;;;32.80;57.00;;;;;;5009041;28;20295;-78
2022/06/22 12:15:52;;;;;;;8.50;5.93;;;32.80;56.70;;;;;;5046636;28;20221;-78
2022/06/22 12:18:43;;;;;;;7.90;5.30;;;32.60;56.50;;;;;;5076184;28;20262;-79
2022/06/22 12:21:34;;;;;;;9.03;5.17;;;32.60;57.40;;;;;;5058600;28;20206;-78
2022/06/22 12:24:19;;;;;;;8.47;5.10;;;32.60;58.30;;;;;;5076602;28;20209;-79
2022/06/22 12:27:20;;;;;;;10.40;5.13;;;32.60;57.40;;;;;;5056444;28;20638;-79
2022/06/22 12:30:01;;;;;;;28.57;7.20;;;32.60;57.50;;;;;;5066931;28;20324;-79
2022/06/22 12:32:50;;;;;;;10.93;5.47;;;32.60;58.00;;;;;;5057219;28;20221;-79
2022/06/22 12:35:27;;;;;;;12.77;5.37;;;32.70;57.80;;;;;;5073047;28;20255;-78
2022/06/22 12:38:00;;;;;;;8.83;5.27;;;32.80;57.30;;;;;;5075106;28;20232;-78
2022/06/22 12:40:52;;;;;;;9.33;5.20;;;32.80;56.70;;;;;;5058414;28;20254;-79
2022/06/22 12:43:50;;;;;;;10.27;5.60;;;32.80;56.60;;;;;;5072495;28;20198;-79
2022/06/22 12:46:36;;;;;;;8.47;5.03;;;32.80;56.30;;;;;;5058100;28;20270;-78
2022/06/22 12:49:21;;;;;;;12.50;6.17;;;32.80;56.00;;;;;;5055297;28;20256;-79
2022/06/22 12:52:02;;;;;;;6.87;5.63;;;32.80;55.80;;;;;;5071160;28;20193;-78
2022/06/22 12:54:41;;;;;;;6.77;5.33;;;32.80;56.00;;;;;;5055862;28;20268;-79
2022/06/22 12:57:23;;;;;;;7.90;5.00;;;32.80;56.60;;;;;;5057934;28;20653;-79
2022/06/22 13:00:15;;;;;;;6.83;5.07;;;32.80;56.30;;;;;;5066470;28;20776;-79
2022/06/22 13:02:44;;;;;;;9.37;5.13;;;32.80;55.70;;;;;;5057339;28;20218;-79
2022/06/22 13:05:19;;;;;;;9.50;5.20;;;32.80;56.40;;;;;;5035060;28;20216;-79
2022/06/22 13:07:59;;;;;;;9.87;5.60;;;32.70;56.50;;;;;;5058051;28;20205;-79
2022/06/22 13:10:34;;;;;;;8.10;5.93;;;32.70;57.60;;;;;;5057889;28;20686;-79
2022/06/22 13:13:12;;;;;;;6.87;4.53;;;32.60;58.40;;;;;;5065840;28;20236;-79
2022/06/22 13:15:46;;;;;;;8.57;5.37;;;32.60;58.30;;;;;;5050072;28;20193;-78
2022/06/22 13:18:14;;;;;;;10.57;5.67;;;32.60;57.50;;;;;;5041329;28;20551;-78
2022/06/22 13:21:04;;;;;;;9.17;4.53;;;32.50;57.20;;;;;;5075197;28;20198;-78
2022/06/22 13:24:00;;;;;;;8.60;4.80;;;32.40;55.80;;;;;;5046020;28;20213;-79
2022/06/22 13:26:44;;;;;;;8.87;5.00;;;32.40;56.20;;;;;;5038114;28;20202;-78
2022/06/22 13:29:11;;;;;;;7.13;4.50;;;32.40;55.50;;;;;;5056972;28;20232;-78
2022/06/22 13:31:40;;;;;;;4.90;4.40;;;32.40;55.00;;;;;;5050629;28;20195;-79
2022/06/22 13:34:31;;;;;;;12.40;4.80;;;32.40;55.30;;;;;;5053129;28;20204;-80
2022/06/22 13:37:40;;;;;;;12.57;4.73;;;32.40;56.30;;;;;;4995732;28;20205;-79
2022/06/22 13:40:35;;;;;;;9.83;5.03;;;32.50;55.40;;;;;;4990894;28;20622;-79
2022/06/22 13:43:38;;;;;;;8.50;4.53;;;32.50;54.60;;;;;;5048007;28;20259;-79
2022/06/22 13:46:31;;;;;;;8.53;4.40;;;32.50;53.60;;;;;;4996898;28;20580;-78
2022/06/22 13:49:18;;;;;;;6.53;4.60;;;32.60;53.10;;;;;;5048664;28;20246;-78
2022/06/22 13:51:52;;;;;;;9.13;4.37;;;32.60;53.20;;;;;;5045087;28;20198;-79
2022/06/22 13:54:46;;;;;;;7.47;5.27;;;32.60;53.30;;;;;;5070799;28;20389;-78
2022/06/22 13:57:45;;;;;;;9.30;4.40;;;32.60;53.00;;;;;;5056758;28;20205;-78
2022/06/22 14:00:27;;;;;;;7.53;4.60;;;32.70;52.40;;;;;;5053048;28;20190;-78
2022/06/22 14:03:00;;;;;;;10.07;4.97;;;32.90;52.50;;;;;;5072126;28;20216;-79
2022/06/22 14:05:44;;;;;;;7.00;4.53;;;33.00;51.80;;;;;;5050607;28;20194;-79
2022/06/22 14:09:03;;;;;;;10.50;4.70;;;33.00;51.70;;;;;;5050853;28;20282;-79
2022/06/22 14:11:36;;;;;;;7.30;4.33;;;33.10;52.00;;;;;;5026796;28;20214;-79